sensor_id;sensor_type;location;lat;lon;timestamp;pressure;altitude;pressure_sealevel;temperature
18161;BMP280;9205;52.032;4.314;2023-06-19T00:01:19;100666.53;;;22.97
18161;BMP280;9205;52.032;4.314;2023-06-19T00:03:46;100674.66;;;22.93
18161;BMP280;9205;52.032;4.314;2023-06-19T00:06:14;100668.63;;;22.82
18161;BMP280;9205;52.032;4.314;2023-06-19T00:08:41;100670.97;;;22.74
18161;BMP280;9205;52.032;4.314;2023-06-19T00:11:08;100670.84;;;22.75
18161;BMP280;9205;52.032;4.314;2023-06-19T00:13:36;100673.03;;;22.69
18161;BMP280;9205;52.032;4.314;2023-06-19T00:16:05;100676.41;;;22.58
18161;BMP280;9205;52.032;4.314;2023-06-19T00:18:32;100675.81;;;22.55
18161;BMP280;9205;52.032;4.314;2023-06-19T00:21:06;100673.34;;;22.53
18161;BMP280;9205;52.032;4.314;2023-06-19T00:23:34;100671.53;;;22.43
18161;BMP280;9205;52.032;4.314;2023-06-19T00:26:01;100674.34;;;22.40
18161;BMP280;9205;52.032;4.314;2023-06-19T00:28:29;100669.50;;;22.23
18161;BMP280;9205;52.032;4.314;2023-06-19T00:30:56;100679.25;;;22.19
18161;BMP280;9205;52.032;4.314;2023-06-19T00:33:25;100681.97;;;22.18
18161;BMP280;9205;52.032;4.314;2023-06-19T00:35:52;100671.50;;;22.19
18161;BMP280;9205;52.032;4.314;2023-06-19T00:38:21;100672.75;;;22.14
18161;BMP280;9205;52.032;4.314;2023-06-19T00:40:49;100678.16;;;22.11
18161;BMP280;9205;52.032;4.314;2023-06-19T00:43:16;100678.84;;;22.13
18161;BMP280;9205;52.032;4.314;2023-06-19T00:45:44;100678.03;;;22.12
18161;BMP280;9205;52.032;4.314;2023-06-19T00:48:11;100683.84;;;22.04
18161;BMP280;9205;52.032;4.314;2023-06-19T00:50:40;100675.81;;;21.96
18161;BMP280;9205;52.032;4.314;2023-06-19T00:53:08;100667.31;;;21.94
18161;BMP280;9205;52.032;4.314;2023-06-19T00:55:37;100671.97;;;22.01
18161;BMP280;9205;52.032;4.314;2023-06-19T00:58:04;100672.47;;;22.06
18161;BMP280;9205;52.032;4.314;2023-06-19T01:00:32;100682.75;;;21.95
18161;BMP280;9205;52.032;4.314;2023-06-19T01:02:59;100675.44;;;21.89
18161;BMP280;9205;52.032;4.314;2023-06-19T01:05:28;100674.28;;;21.93
18161;BMP280;9205;52.032;4.314;2023-06-19T01:08:09;100679.16;;;21.85
18161;BMP280;9205;52.032;4.314;2023-06-19T01:10:46;100673.38;;;21.82
18161;BMP280;9205;52.032;4.314;2023-06-19T01:13:31;100685.69;;;21.78
18161;BMP280;9205;52.032;4.314;2023-06-19T01:16:07;100678.94;;;21.88
18161;BMP280;9205;52.032;4.314;2023-06-19T01:18:35;100677.50;;;21.84
18161;BMP280;9205;52.032;4.314;2023-06-19T01:21:11;100673.88;;;21.87
18161;BMP280;9205;52.032;4.314;2023-06-19T01:23:41;100682.97;;;21.80
18161;BMP280;9205;52.032;4.314;2023-06-19T01:26:11;100681.25;;;21.68
18161;BMP280;9205;52.032;4.314;2023-06-19T01:28:42;100682.50;;;21.62
18161;BMP280;9205;52.032;4.314;2023-06-19T01:31:16;100669.69;;;21.61
18161;BMP280;9205;52.032;4.314;2023-06-19T01:33:47;100655.94;;;21.60
18161;BMP280;9205;52.032;4.314;2023-06-19T01:36:19;100668.44;;;21.66
18161;BMP280;9205;52.032;4.314;2023-06-19T01:38:50;100657.47;;;21.63
18161;BMP280;9205;52.032;4.314;2023-06-19T01:41:20;100655.94;;;21.60
18161;BMP280;9205;52.032;4.314;2023-06-19T01:43:51;100661.81;;;21.62
18161;BMP280;9205;52.032;4.314;2023-06-19T01:46:19;100664.84;;;21.56
18161;BMP280;9205;52.032;4.314;2023-06-19T01:48:46;100665.47;;;21.60
18161;BMP280;9205;52.032;4.314;2023-06-19T01:51:13;100652.72;;;21.57
18161;BMP280;9205;52.032;4.314;2023-06-19T01:53:41;100661.81;;;21.50
18161;BMP280;9205;52.032;4.314;2023-06-19T01:56:11;100648.41;;;21.57
18161;BMP280;9205;52.032;4.314;2023-06-19T01:58:41;100668.03;;;21.60
18161;BMP280;9205;52.032;4.314;2023-06-19T02:01:08;100666.28;;;21.60
18161;BMP280;9205;52.032;4.314;2023-06-19T02:03:37;100655.50;;;21.66
18161;BMP280;9205;52.032;4.314;2023-06-19T02:06:05;100673.31;;;21.58
18161;BMP280;9205;52.032;4.314;2023-06-19T02:08:33;100668.34;;;21.55
18161;BMP280;9205;52.032;4.314;2023-06-19T02:11:00;100674.03;;;21.60
18161;BMP280;9205;52.032;4.314;2023-06-19T02:13:28;100673.69;;;21.52
18161;BMP280;9205;52.032;4.314;2023-06-19T02:15:56;100676.19;;;21.41
18161;BMP280;9205;52.032;4.314;2023-06-19T02:18:25;100667.22;;;21.22
18161;BMP280;9205;52.032;4.314;2023-06-19T02:20:53;100688.06;;;21.07
18161;BMP280;9205;52.032;4.314;2023-06-19T02:23:22;100687.13;;;21.08
18161;BMP280;9205;52.032;4.314;2023-06-19T02:25:49;100693.94;;;20.96
18161;BMP280;9205;52.032;4.314;2023-06-19T02:28:17;100692.19;;;20.97
18161;BMP280;9205;52.032;4.314;2023-06-19T02:30:45;100700.22;;;21.05
18161;BMP280;9205;52.032;4.314;2023-06-19T02:33:13;100705.72;;;21.00
18161;BMP280;9205;52.032;4.314;2023-06-19T02:35:40;100711.41;;;21.05
18161;BMP280;9205;52.032;4.314;2023-06-19T02:38:10;100712.53;;;21.01
18161;BMP280;9205;52.032;4.314;2023-06-19T02:40:38;100722.56;;;21.06
18161;BMP280;9205;52.032;4.314;2023-06-19T02:43:06;100723.88;;;20.99
18161;BMP280;9205;52.032;4.314;2023-06-19T02:45:33;100738.13;;;20.92
18161;BMP280;9205;52.032;4.314;2023-06-19T02:48:04;100732.63;;;20.84
18161;BMP280;9205;52.032;4.314;2023-06-19T02:50:32;100738.47;;;20.73
18161;BMP280;9205;52.032;4.314;2023-06-19T02:53:00;100747.06;;;20.60
18161;BMP280;9205;52.032;4.314;2023-06-19T02:55:27;100748.69;;;20.48
18161;BMP280;9205;52.032;4.314;2023-06-19T02:57:56;100754.88;;;20.46
18161;BMP280;9205;52.032;4.314;2023-06-19T03:00:23;100760.13;;;20.45
18161;BMP280;9205;52.032;4.314;2023-06-19T03:02:50;100760.56;;;20.51
18161;BMP280;9205;52.032;4.314;2023-06-19T03:05:20;100766.66;;;20.50
18161;BMP280;9205;52.032;4.314;2023-06-19T03:07:47;100775.31;;;20.49
18161;BMP280;9205;52.032;4.314;2023-06-19T03:10:15;100776.34;;;20.47
18161;BMP280;9205;52.032;4.314;2023-06-19T03:12:42;100788.59;;;20.43
18161;BMP280;9205;52.032;4.314;2023-06-19T03:15:10;100792.66;;;20.47
18161;BMP280;9205;52.032;4.314;2023-06-19T03:17:41;100795.91;;;20.37
18161;BMP280;9205;52.032;4.314;2023-06-19T03:20:11;100802.63;;;20.25
18161;BMP280;9205;52.032;4.314;2023-06-19T03:22:43;100805.66;;;20.18
18161;BMP280;9205;52.032;4.314;2023-06-19T03:25:13;100804.38;;;20.11
18161;BMP280;9205;52.032;4.314;2023-06-19T03:27:41;100807.81;;;20.11
18161;BMP280;9205;52.032;4.314;2023-06-19T03:30:09;100808.72;;;20.10
18161;BMP280;9205;52.032;4.314;2023-06-19T03:32:41;100826.41;;;20.02
18161;BMP280;9205;52.032;4.314;2023-06-19T03:35:15;100819.59;;;20.01
18161;BMP280;9205;52.032;4.314;2023-06-19T03:37:45;100814.59;;;19.98
18161;BMP280;9205;52.032;4.314;2023-06-19T03:40:12;100827.50;;;19.98
18161;BMP280;9205;52.032;4.314;2023-06-19T03:42:42;100824.91;;;19.98
18161;BMP280;9205;52.032;4.314;2023-06-19T03:45:10;100841.31;;;19.97
18161;BMP280;9205;52.032;4.314;2023-06-19T03:47:37;100842.06;;;19.99
18161;BMP280;9205;52.032;4.314;2023-06-19T03:50:07;100850.81;;;19.97
18161;BMP280;9205;52.032;4.314;2023-06-19T03:52:36;100861.94;;;19.97
18161;BMP280;9205;52.032;4.314;2023-06-19T03:55:07;100859.28;;;19.99
18161;BMP280;9205;52.032;4.314;2023-06-19T03:57:35;100868.16;;;19.93
18161;BMP280;9205;52.032;4.314;2023-06-19T04:00:03;100864.63;;;19.96
18161;BMP280;9205;52.032;4.314;2023-06-19T04:02:38;100868.53;;;19.87
18161;BMP280;9205;52.032;4.314;2023-06-19T04:05:06;100870.00;;;19.91
18161;BMP280;9205;52.032;4.314;2023-06-19T04:07:34;100873.25;;;19.95
18161;BMP280;9205;52.032;4.314;2023-06-19T04:10:03;100877.19;;;19.86
18161;BMP280;9205;52.032;4.314;2023-06-19T04:12:33;100879.75;;;19.86
18161;BMP280;9205;52.032;4.314;2023-06-19T04:15:00;100881.34;;;19.89
18161;BMP280;9205;52.032;4.314;2023-06-19T04:17:27;100890.28;;;19.97
18161;BMP280;9205;52.032;4.314;2023-06-19T04:19:54;100889.56;;;19.95
18161;BMP280;9205;52.032;4.314;2023-06-19T04:22:22;100900.19;;;19.89
18161;BMP280;9205;52.032;4.314;2023-06-19T04:24:49;100909.00;;;19.71
18161;BMP280;9205;52.032;4.314;2023-06-19T04:27:17;100901.81;;;19.76
18161;BMP280;9205;52.032;4.314;2023-06-19T04:29:45;100916.63;;;19.73
18161;BMP280;9205;52.032;4.314;2023-06-19T04:32:13;100907.72;;;19.78
18161;BMP280;9205;52.032;4.314;2023-06-19T04:34:41;100920.03;;;19.73
18161;BMP280;9205;52.032;4.314;2023-06-19T04:37:12;100927.59;;;19.76
18161;BMP280;9205;52.032;4.314;2023-06-19T04:39:39;100937.00;;;19.77
18161;BMP280;9205;52.032;4.314;2023-06-19T04:42:07;100925.94;;;19.75
18161;BMP280;9205;52.032;4.314;2023-06-19T04:44:34;100932.00;;;19.74
18161;BMP280;9205;52.032;4.314;2023-06-19T04:47:03;100934.19;;;19.66
18161;BMP280;9205;52.032;4.314;2023-06-19T04:49:31;100937.88;;;19.63
18161;BMP280;9205;52.032;4.314;2023-06-19T04:51:58;100943.53;;;19.54
18161;BMP280;9205;52.032;4.314;2023-06-19T04:54:25;100941.88;;;19.53
18161;BMP280;9205;52.032;4.314;2023-06-19T04:56:53;100947.28;;;19.48
18161;BMP280;9205;52.032;4.314;2023-06-19T04:59:21;100953.28;;;19.49
18161;BMP280;9205;52.032;4.314;2023-06-19T05:01:48;100963.09;;;19.42
18161;BMP280;9205;52.032;4.314;2023-06-19T05:04:17;100971.72;;;19.41
18161;BMP280;9205;52.032;4.314;2023-06-19T05:06:44;100966.66;;;19.40
18161;BMP280;9205;52.032;4.314;2023-06-19T05:09:11;100961.63;;;19.38
18161;BMP280;9205;52.032;4.314;2023-06-19T05:11:38;100973.72;;;19.36
18161;BMP280;9205;52.032;4.314;2023-06-19T05:14:06;100980.63;;;19.36
18161;BMP280;9205;52.032;4.314;2023-06-19T05:16:33;100979.13;;;19.32
18161;BMP280;9205;52.032;4.314;2023-06-19T05:19:01;100980.88;;;19.31
18161;BMP280;9205;52.032;4.314;2023-06-19T05:21:29;100980.47;;;19.39
18161;BMP280;9205;52.032;4.314;2023-06-19T05:23:57;100994.44;;;19.35
18161;BMP280;9205;52.032;4.314;2023-06-19T05:26:24;100992.16;;;19.29
18161;BMP280;9205;52.032;4.314;2023-06-19T05:28:52;101002.06;;;19.21
18161;BMP280;9205;52.032;4.314;2023-06-19T05:31:19;101006.06;;;19.11
18161;BMP280;9205;52.032;4.314;2023-06-19T05:33:46;101011.66;;;19.02
18161;BMP280;9205;52.032;4.314;2023-06-19T05:36:14;101017.13;;;18.96
18161;BMP280;9205;52.032;4.314;2023-06-19T05:38:42;101022.44;;;18.93
18161;BMP280;9205;52.032;4.314;2023-06-19T05:41:09;101021.84;;;18.88
18161;BMP280;9205;52.032;4.314;2023-06-19T05:43:37;101020.78;;;18.92
18161;BMP280;9205;52.032;4.314;2023-06-19T05:46:05;101024.09;;;18.94
18161;BMP280;9205;52.032;4.314;2023-06-19T05:48:32;101027.44;;;18.96
18161;BMP280;9205;52.032;4.314;2023-06-19T05:50:59;101028.41;;;18.93
18161;BMP280;9205;52.032;4.314;2023-06-19T05:53:26;101023.25;;;18.93
18161;BMP280;9205;52.032;4.314;2023-06-19T05:55:55;101035.88;;;18.98
18161;BMP280;9205;52.032;4.314;2023-06-19T05:58:24;101027.94;;;19.02
18161;BMP280;9205;52.032;4.314;2023-06-19T06:00:51;101031.50;;;19.00
18161;BMP280;9205;52.032;4.314;2023-06-19T06:03:23;101031.66;;;18.97
18161;BMP280;9205;52.032;4.314;2023-06-19T06:05:51;101038.03;;;18.90
18161;BMP280;9205;52.032;4.314;2023-06-19T06:08:18;101039.78;;;18.89
18161;BMP280;9205;52.032;4.314;2023-06-19T06:10:46;101042.19;;;18.92
18161;BMP280;9205;52.032;4.314;2023-06-19T06:13:14;101052.31;;;18.95
18161;BMP280;9205;52.032;4.314;2023-06-19T06:15:41;101058.75;;;19.04
18161;BMP280;9205;52.032;4.314;2023-06-19T06:18:09;101065.72;;;19.02
18161;BMP280;9205;52.032;4.314;2023-06-19T06:20:36;101075.41;;;18.97
18161;BMP280;9205;52.032;4.314;2023-06-19T06:23:04;101071.19;;;18.96
18161;BMP280;9205;52.032;4.314;2023-06-19T06:25:31;101076.50;;;18.93
18161;BMP280;9205;52.032;4.314;2023-06-19T06:27:58;101082.22;;;18.98
18161;BMP280;9205;52.032;4.314;2023-06-19T06:30:27;101082.41;;;18.95
18161;BMP280;9205;52.032;4.314;2023-06-19T06:32:54;101080.56;;;18.97
18161;BMP280;9205;52.032;4.314;2023-06-19T06:35:21;101077.44;;;19.07
18161;BMP280;9205;52.032;4.314;2023-06-19T06:37:49;101087.38;;;19.15
18161;BMP280;9205;52.032;4.314;2023-06-19T06:40:17;101087.66;;;19.26
18161;BMP280;9205;52.032;4.314;2023-06-19T06:42:44;101084.88;;;19.29
18161;BMP280;9205;52.032;4.314;2023-06-19T06:45:13;101094.19;;;19.31
18161;BMP280;9205;52.032;4.314;2023-06-19T06:47:41;101091.31;;;19.37
18161;BMP280;9205;52.032;4.314;2023-06-19T06:50:09;101099.09;;;19.36
18161;BMP280;9205;52.032;4.314;2023-06-19T06:52:37;101095.97;;;19.46
18161;BMP280;9205;52.032;4.314;2023-06-19T06:55:06;101107.94;;;19.47
18161;BMP280;9205;52.032;4.314;2023-06-19T06:57:34;101117.25;;;19.50
18161;BMP280;9205;52.032;4.314;2023-06-19T07:00:02;101113.59;;;19.54
18161;BMP280;9205;52.032;4.314;2023-06-19T07:02:29;101126.38;;;19.55
18161;BMP280;9205;52.032;4.314;2023-06-19T07:04:58;101118.75;;;19.54
18161;BMP280;9205;52.032;4.314;2023-06-19T07:07:25;101116.25;;;19.52
18161;BMP280;9205;52.032;4.314;2023-06-19T07:09:52;101124.56;;;19.57
18161;BMP280;9205;52.032;4.314;2023-06-19T07:12:20;101130.47;;;19.74
18161;BMP280;9205;52.032;4.314;2023-06-19T07:14:47;101121.41;;;19.83
18161;BMP280;9205;52.032;4.314;2023-06-19T07:17:14;101128.25;;;19.84
18161;BMP280;9205;52.032;4.314;2023-06-19T07:19:41;101125.09;;;19.94
18161;BMP280;9205;52.032;4.314;2023-06-19T07:22:10;101129.63;;;19.89
18161;BMP280;9205;52.032;4.314;2023-06-19T07:24:39;101137.09;;;19.95
18161;BMP280;9205;52.032;4.314;2023-06-19T07:27:07;101141.72;;;20.04
18161;BMP280;9205;52.032;4.314;2023-06-19T07:29:34;101140.56;;;19.94
18161;BMP280;9205;52.032;4.314;2023-06-19T07:32:01;101145.53;;;19.97
18161;BMP280;9205;52.032;4.314;2023-06-19T07:34:30;101137.00;;;19.97
18161;BMP280;9205;52.032;4.314;2023-06-19T07:36:57;101145.22;;;20.03
18161;BMP280;9205;52.032;4.314;2023-06-19T07:39:26;101146.31;;;19.99
18161;BMP280;9205;52.032;4.314;2023-06-19T07:41:53;101154.50;;;19.90
18161;BMP280;9205;52.032;4.314;2023-06-19T07:44:21;101143.19;;;19.93
18161;BMP280;9205;52.032;4.314;2023-06-19T07:46:51;101138.56;;;19.99
18161;BMP280;9205;52.032;4.314;2023-06-19T07:49:18;101161.31;;;19.91
18161;BMP280;9205;52.032;4.314;2023-06-19T07:51:46;101161.31;;;19.91
18161;BMP280;9205;52.032;4.314;2023-06-19T07:54:13;101162.31;;;19.89
18161;BMP280;9205;52.032;4.314;2023-06-19T07:56:42;101167.63;;;19.86
18161;BMP280;9205;52.032;4.314;2023-06-19T07:59:09;101169.91;;;19.92
18161;BMP280;9205;52.032;4.314;2023-06-19T08:01:37;101172.66;;;20.04
18161;BMP280;9205;52.032;4.314;2023-06-19T08:04:04;101164.34;;;20.15
18161;BMP280;9205;52.032;4.314;2023-06-19T08:06:32;101160.34;;;20.09
18161;BMP280;9205;52.032;4.314;2023-06-19T08:08:59;101166.28;;;20.11
18161;BMP280;9205;52.032;4.314;2023-06-19T08:11:26;101165.00;;;20.18
18161;BMP280;9205;52.032;4.314;2023-06-19T08:13:55;101169.16;;;20.21
18161;BMP280;9205;52.032;4.314;2023-06-19T08:16:24;101161.94;;;20.27
18161;BMP280;9205;52.032;4.314;2023-06-19T08:18:52;101168.16;;;20.39
18161;BMP280;9205;52.032;4.314;2023-06-19T08:21:19;101175.13;;;20.37
18161;BMP280;9205;52.032;4.314;2023-06-19T08:23:47;101175.72;;;20.26
18161;BMP280;9205;52.032;4.314;2023-06-19T08:26:14;101182.13;;;20.35
18161;BMP280;9205;52.032;4.314;2023-06-19T08:28:42;101189.56;;;20.54
18161;BMP280;9205;52.032;4.314;2023-06-19T08:31:12;101196.75;;;20.49
18161;BMP280;9205;52.032;4.314;2023-06-19T08:33:40;101193.53;;;20.60
18161;BMP280;9205;52.032;4.314;2023-06-19T08:36:07;101203.19;;;20.72
18161;BMP280;9205;52.032;4.314;2023-06-19T08:38:35;101212.28;;;20.79
18161;BMP280;9205;52.032;4.314;2023-06-19T08:41:02;101208.03;;;20.78
18161;BMP280;9205;52.032;4.314;2023-06-19T08:43:30;101214.34;;;20.72
18161;BMP280;9205;52.032;4.314;2023-06-19T08:46:10;101207.88;;;20.81
18161;BMP280;9205;52.032;4.314;2023-06-19T08:48:39;101211.00;;;20.86
18161;BMP280;9205;52.032;4.314;2023-06-19T08:51:09;101203.81;;;20.91
18161;BMP280;9205;52.032;4.314;2023-06-19T08:53:44;101197.19;;;21.01
18161;BMP280;9205;52.032;4.314;2023-06-19T08:56:12;101200.53;;;21.03
18161;BMP280;9205;52.032;4.314;2023-06-19T08:58:40;101207.00;;;21.10
18161;BMP280;9205;52.032;4.314;2023-06-19T09:01:08;101199.16;;;21.25
18161;BMP280;9205;52.032;4.314;2023-06-19T09:03:35;101197.25;;;21.42
18161;BMP280;9205;52.032;4.314;2023-06-19T09:06:07;101195.09;;;21.49
18161;BMP280;9205;52.032;4.314;2023-06-19T09:08:34;101206.69;;;21.57
18161;BMP280;9205;52.032;4.314;2023-06-19T09:11:03;101212.22;;;21.65
18161;BMP280;9205;52.032;4.314;2023-06-19T09:13:31;101217.97;;;21.56
18161;BMP280;9205;52.032;4.314;2023-06-19T09:16:03;101226.06;;;21.50
18161;BMP280;9205;52.032;4.314;2023-06-19T09:18:32;101224.09;;;21.40
18161;BMP280;9205;52.032;4.314;2023-06-19T09:21:17;101232.16;;;21.49
18161;BMP280;9205;52.032;4.314;2023-06-19T09:23:46;101237.31;;;21.49
18161;BMP280;9205;52.032;4.314;2023-06-19T09:26:15;101238.78;;;21.53
18161;BMP280;9205;52.032;4.314;2023-06-19T09:28:44;101249.13;;;21.67
18161;BMP280;9205;52.032;4.314;2023-06-19T09:31:11;101240.03;;;21.76
18161;BMP280;9205;52.032;4.314;2023-06-19T09:33:40;101251.66;;;21.83
18161;BMP280;9205;52.032;4.314;2023-06-19T09:36:07;101252.09;;;21.75
18161;BMP280;9205;52.032;4.314;2023-06-19T09:38:38;101256.28;;;21.78
18161;BMP280;9205;52.032;4.314;2023-06-19T09:41:09;101244.34;;;21.89
18161;BMP280;9205;52.032;4.314;2023-06-19T09:43:39;101259.22;;;22.00
18161;BMP280;9205;52.032;4.314;2023-06-19T09:46:11;101260.31;;;21.96
18161;BMP280;9205;52.032;4.314;2023-06-19T09:48:42;101261.66;;;22.15
18161;BMP280;9205;52.032;4.314;2023-06-19T09:51:17;101253.44;;;22.22
18161;BMP280;9205;52.032;4.314;2023-06-19T09:53:49;101254.63;;;22.31
18161;BMP280;9205;52.032;4.314;2023-06-19T09:56:17;101253.03;;;22.42
18161;BMP280;9205;52.032;4.314;2023-06-19T09:58:51;101262.28;;;22.46
18161;BMP280;9205;52.032;4.314;2023-06-19T10:01:20;101253.72;;;22.58
18161;BMP280;9205;52.032;4.314;2023-06-19T10:03:48;101254.50;;;22.73
18161;BMP280;9205;52.032;4.314;2023-06-19T10:06:17;101258.34;;;22.80
18161;BMP280;9205;52.032;4.314;2023-06-19T10:08:47;101259.41;;;22.63
18161;BMP280;9205;52.032;4.314;2023-06-19T10:11:16;101263.59;;;22.66
18161;BMP280;9205;52.032;4.314;2023-06-19T10:13:43;101266.06;;;22.67
18161;BMP280;9205;52.032;4.314;2023-06-19T10:16:21;101261.34;;;22.74
18161;BMP280;9205;52.032;4.314;2023-06-19T10:18:48;101264.91;;;22.85
18161;BMP280;9205;52.032;4.314;2023-06-19T10:21:17;101271.63;;;22.88
18161;BMP280;9205;52.032;4.314;2023-06-19T10:23:55;101267.50;;;22.97
18161;BMP280;9205;52.032;4.314;2023-06-19T10:26:31;101274.75;;;22.92
18161;BMP280;9205;52.032;4.314;2023-06-19T10:28:59;101268.88;;;23.03
18161;BMP280;9205;52.032;4.314;2023-06-19T10:31:28;101265.38;;;23.16
18161;BMP280;9205;52.032;4.314;2023-06-19T10:33:57;101262.50;;;23.33
18161;BMP280;9205;52.032;4.314;2023-06-19T10:36:26;101260.44;;;23.38
18161;BMP280;9205;52.032;4.314;2023-06-19T10:38:56;101263.63;;;23.42
18161;BMP280;9205;52.032;4.314;2023-06-19T10:41:25;101265.63;;;23.63
18161;BMP280;9205;52.032;4.314;2023-06-19T10:43:56;101271.09;;;23.71
18161;BMP280;9205;52.032;4.314;2023-06-19T10:46:28;101272.50;;;23.76
18161;BMP280;9205;52.032;4.314;2023-06-19T10:48:57;101270.94;;;23.74
18161;BMP280;9205;52.032;4.314;2023-06-19T10:51:27;101267.00;;;23.81
18161;BMP280;9205;52.032;4.314;2023-06-19T10:53:57;101259.56;;;24.00
18161;BMP280;9205;52.032;4.314;2023-06-19T10:56:26;101255.94;;;24.61
18161;BMP280;9205;52.032;4.314;2023-06-19T10:59:02;101254.34;;;25.06
18161;BMP280;9205;52.032;4.314;2023-06-19T11:01:37;101250.69;;;25.53
18161;BMP280;9205;52.032;4.314;2023-06-19T11:04:07;101253.06;;;25.89
18161;BMP280;9205;52.032;4.314;2023-06-19T11:06:37;101247.19;;;26.51
18161;BMP280;9205;52.032;4.314;2023-06-19T11:09:10;101244.50;;;26.62
18161;BMP280;9205;52.032;4.314;2023-06-19T11:11:39;101246.25;;;26.41
18161;BMP280;9205;52.032;4.314;2023-06-19T11:14:13;101242.66;;;25.89
18161;BMP280;9205;52.032;4.314;2023-06-19T11:16:44;101244.16;;;25.48
18161;BMP280;9205;52.032;4.314;2023-06-19T11:19:19;101244.16;;;25.70
18161;BMP280;9205;52.032;4.314;2023-06-19T11:21:50;101240.75;;;25.80
18161;BMP280;9205;52.032;4.314;2023-06-19T11:24:22;101239.56;;;25.62
18161;BMP280;9205;52.032;4.314;2023-06-19T11:26:50;101235.91;;;25.65
18161;BMP280;9205;52.032;4.314;2023-06-19T11:29:21;101234.47;;;25.72
18161;BMP280;9205;52.032;4.314;2023-06-19T11:31:49;101248.91;;;25.65
18161;BMP280;9205;52.032;4.314;2023-06-19T11:34:30;101242.84;;;25.64
18161;BMP280;9205;52.032;4.314;2023-06-19T11:36:59;101246.88;;;25.35
18161;BMP280;9205;52.032;4.314;2023-06-19T11:39:28;101250.28;;;25.25
18161;BMP280;9205;52.032;4.314;2023-06-19T11:41:59;101244.66;;;25.42
18161;BMP280;9205;52.032;4.314;2023-06-19T11:44:28;101251.28;;;25.57
18161;BMP280;9205;52.032;4.314;2023-06-19T11:46:58;101246.53;;;25.73
18161;BMP280;9205;52.032;4.314;2023-06-19T11:49:26;101254.84;;;25.78
18161;BMP280;9205;52.032;4.314;2023-06-19T11:51:54;101246.78;;;25.92
18161;BMP280;9205;52.032;4.314;2023-06-19T11:54:32;101238.84;;;26.15
18161;BMP280;9205;52.032;4.314;2023-06-19T11:56:59;101238.06;;;26.46
18161;BMP280;9205;52.032;4.314;2023-06-19T11:59:43;101256.91;;;26.27
18161;BMP280;9205;52.032;4.314;2023-06-19T12:02:14;101254.81;;;26.11
18161;BMP280;9205;52.032;4.314;2023-06-19T12:04:41;101263.34;;;25.91
18161;BMP280;9205;52.032;4.314;2023-06-19T12:07:09;101261.47;;;25.82
18161;BMP280;9205;52.032;4.314;2023-06-19T12:09:39;101261.94;;;25.98
18161;BMP280;9205;52.032;4.314;2023-06-19T12:12:10;101261.41;;;26.25
18161;BMP280;9205;52.032;4.314;2023-06-19T12:14:38;101261.38;;;26.47
18161;BMP280;9205;52.032;4.314;2023-06-19T12:17:06;101264.84;;;26.68
18161;BMP280;9205;52.032;4.314;2023-06-19T12:19:34;101271.56;;;26.82
18161;BMP280;9205;52.032;4.314;2023-06-19T12:22:05;101267.59;;;26.98
18161;BMP280;9205;52.032;4.314;2023-06-19T12:24:33;101270.38;;;27.06
18161;BMP280;9205;52.032;4.314;2023-06-19T12:27:07;101272.56;;;27.01
18161;BMP280;9205;52.032;4.314;2023-06-19T12:29:36;101271.28;;;27.16
18161;BMP280;9205;52.032;4.314;2023-06-19T12:32:05;101264.94;;;27.09
18161;BMP280;9205;52.032;4.314;2023-06-19T12:34:33;101272.94;;;27.17
18161;BMP280;9205;52.032;4.314;2023-06-19T12:37:03;101268.34;;;27.30
18161;BMP280;9205;52.032;4.314;2023-06-19T12:39:32;101277.78;;;27.42
18161;BMP280;9205;52.032;4.314;2023-06-19T12:42:04;101277.78;;;27.42
18161;BMP280;9205;52.032;4.314;2023-06-19T12:44:34;101274.22;;;27.43
18161;BMP280;9205;52.032;4.314;2023-06-19T12:47:06;101279.44;;;27.43
18161;BMP280;9205;52.032;4.314;2023-06-19T12:49:38;101290.19;;;27.29
18161;BMP280;9205;52.032;4.314;2023-06-19T12:52:07;101275.47;;;27.48
18161;BMP280;9205;52.032;4.314;2023-06-19T12:54:42;101267.38;;;27.51
18161;BMP280;9205;52.032;4.314;2023-06-19T12:57:13;101278.38;;;27.55
18161;BMP280;9205;52.032;4.314;2023-06-19T12:59:49;101274.00;;;27.55
18161;BMP280;9205;52.032;4.314;2023-06-19T13:02:18;101264.63;;;27.53
18161;BMP280;9205;52.032;4.314;2023-06-19T13:04:47;101261.19;;;27.52
18161;BMP280;9205;52.032;4.314;2023-06-19T13:07:16;101262.69;;;27.66
18161;BMP280;9205;52.032;4.314;2023-06-19T13:09:47;101270.72;;;27.83
18161;BMP280;9205;52.032;4.314;2023-06-19T13:12:21;101267.56;;;27.89
18161;BMP280;9205;52.032;4.314;2023-06-19T13:14:49;101263.75;;;28.02
18161;BMP280;9205;52.032;4.314;2023-06-19T13:17:19;101256.31;;;27.88
18161;BMP280;9205;52.032;4.314;2023-06-19T13:19:48;101261.63;;;27.77
18161;BMP280;9205;52.032;4.314;2023-06-19T13:22:23;101260.44;;;28.00
18161;BMP280;9205;52.032;4.314;2023-06-19T13:24:52;101261.84;;;28.04
18161;BMP280;9205;52.032;4.314;2023-06-19T13:27:22;101261.00;;;28.04
18161;BMP280;9205;52.032;4.314;2023-06-19T13:33:20;101252.38;;;28.03
18161;BMP280;9205;52.032;4.314;2023-06-19T13:35:48;101256.78;;;28.12
18161;BMP280;9205;52.032;4.314;2023-06-19T13:38:17;101244.41;;;28.14
18161;BMP280;9205;52.032;4.314;2023-06-19T13:40:45;101251.97;;;28.17
18161;BMP280;9205;52.032;4.314;2023-06-19T13:43:17;101251.50;;;27.93
18161;BMP280;9205;52.032;4.314;2023-06-19T13:45:46;101248.47;;;27.88
18161;BMP280;9205;52.032;4.314;2023-06-19T13:48:14;101239.00;;;27.87
18161;BMP280;9205;52.032;4.314;2023-06-19T13:50:43;101236.56;;;28.05
18161;BMP280;9205;52.032;4.314;2023-06-19T13:53:11;101246.53;;;28.20
18161;BMP280;9205;52.032;4.314;2023-06-19T13:55:39;101247.09;;;28.24
18161;BMP280;9205;52.032;4.314;2023-06-19T13:58:07;101243.78;;;28.31
18161;BMP280;9205;52.032;4.314;2023-06-19T14:00:36;101245.59;;;28.50
18161;BMP280;9205;52.032;4.314;2023-06-19T14:03:04;101237.34;;;28.54
18161;BMP280;9205;52.032;4.314;2023-06-19T14:05:33;101248.59;;;28.45
18161;BMP280;9205;52.032;4.314;2023-06-19T14:08:05;101257.69;;;28.51
18161;BMP280;9205;52.032;4.314;2023-06-19T14:10:33;101259.91;;;28.55
18161;BMP280;9205;52.032;4.314;2023-06-19T14:13:02;101234.19;;;28.69
18161;BMP280;9205;52.032;4.314;2023-06-19T14:15:30;101237.63;;;28.51
18161;BMP280;9205;52.032;4.314;2023-06-19T14:17:59;101251.06;;;28.37
18161;BMP280;9205;52.032;4.314;2023-06-19T14:20:26;101247.94;;;28.43
18161;BMP280;9205;52.032;4.314;2023-06-19T14:22:54;101247.78;;;28.35